createdAt,value
2022-08-22T00:01:30.050Z,97.10
2022-08-22T00:02:44.327Z,93.89
2022-08-22T00:02:47.663Z,79.95
2022-08-22T00:02:52.977Z,81.58
2022-08-22T00:03:01.923Z,93.01
2022-08-22T00:04:33.356Z,96.99
2022-08-22T00:07:06.586Z,97.20
2022-08-22T00:09:47.143Z,96.53
2022-08-22T00:12:41.173Z,97.72
2022-08-22T00:15:42.499Z,96.93
2022-08-22T00:18:22.990Z,96.30
2022-08-22T00:21:17.156Z,96.55
2022-08-22T00:24:05.447Z,96.73
2022-08-22T00:26:53.439Z,96.99
2022-08-22T00:29:33.378Z,96.30
2022-08-22T00:32:24.379Z,98.59
2022-08-22T00:35:05.709Z,100.00
2022-08-22T00:37:43.996Z,100.00
2022-08-22T00:40:30.716Z,100.00
2022-08-22T00:43:42.537Z,100.00
2022-08-22T00:46:46.814Z,100.00
2022-08-22T00:49:56.936Z,100.00
2022-08-22T00:52:58.863Z,100.00
2022-08-22T00:55:53.675Z,99.62
2022-08-22T00:58:45.266Z,99.94
2022-08-22T01:01:19.083Z,98.81
2022-08-22T01:03:48.354Z,99.40
2022-08-22T01:06:45.253Z,98.50
2022-08-22T01:09:41.280Z,99.11
2022-08-22T01:12:43.919Z,99.45
2022-08-22T01:15:21.881Z,99.33
2022-08-22T01:18:52.526Z,98.56
2022-08-22T01:22:23.732Z,97.34
2022-08-22T01:25:49.830Z,98.30
2022-08-22T01:28:49.012Z,98.97
2022-08-22T01:32:08.991Z,98.11
2022-08-22T01:35:37.054Z,97.93
2022-08-22T01:38:23.628Z,98.00
2022-08-22T01:41:29.274Z,98.30
2022-08-22T01:44:34.309Z,98.64
2022-08-22T01:47:30.963Z,98.27
2022-08-22T01:50:11.368Z,98.25
2022-08-22T01:52:53.502Z,99.39
2022-08-22T01:55:52.475Z,99.91
2022-08-22T01:58:32.007Z,100.00
2022-08-22T02:01:10.863Z,99.90
2022-08-22T02:03:57.958Z,99.98
2022-08-22T02:06:41.331Z,99.52
2022-08-22T02:09:47.458Z,99.04
2022-08-22T02:12:31.292Z,98.11
2022-08-22T02:15:22.756Z,97.91
2022-08-22T02:18:09.128Z,98.01
2022-08-22T02:20:48.090Z,97.03
2022-08-22T02:23:52.784Z,96.61
2022-08-22T02:27:04.316Z,96.16
2022-08-22T02:29:58.932Z,96.81
2022-08-22T02:32:58.640Z,96.60
2022-08-22T02:35:52.071Z,97.43
2022-08-22T02:38:40.955Z,97.83
2022-08-22T02:41:24.914Z,99.20
2022-08-22T02:43:59.835Z,98.54
2022-08-22T02:47:15.461Z,97.99
2022-08-22T02:49:48.094Z,97.24
2022-08-22T02:52:59.788Z,97.67
2022-08-22T02:55:39.208Z,97.41
2022-08-22T02:58:24.644Z,98.55
2022-08-22T03:01:03.451Z,98.93
2022-08-22T03:03:41.167Z,99.58
2022-08-22T03:06:32.722Z,98.18
2022-08-22T03:09:08.280Z,98.67
2022-08-22T03:11:43.863Z,98.93
2022-08-22T03:14:28.704Z,98.14
2022-08-22T03:17:12.059Z,97.75
2022-08-22T03:20:35.940Z,97.74
2022-08-22T03:23:15.539Z,98.01
2022-08-22T03:26:00.885Z,98.88
2022-08-22T03:28:56.097Z,98.77
2022-08-22T03:31:29.943Z,99.65
2022-08-22T03:34:27.139Z,98.99
2022-08-22T03:37:19.331Z,99.93
2022-08-22T03:40:06.939Z,100.00
2022-08-22T03:42:49.023Z,99.52
2022-08-22T03:45:34.752Z,98.96
2022-08-22T03:48:51.520Z,100.00
2022-08-22T03:52:14.065Z,99.92
2022-08-22T03:55:30.058Z,99.54
2022-08-22T03:58:35.712Z,99.90
2022-08-22T04:01:39.146Z,100.00
2022-08-22T04:04:39.794Z,100.00
2022-08-22T04:07:43.682Z,100.00
2022-08-22T04:10:39.786Z,100.00
2022-08-22T04:13:32.764Z,100.00
2022-08-22T04:20:40.052Z,100.00
2022-08-22T04:23:32.447Z,100.00
2022-08-22T04:26:12.733Z,100.00
2022-08-22T04:29:14.039Z,100.00
2022-08-22T04:32:01.054Z,99.61
2022-08-22T04:35:19.793Z,99.74
2022-08-22T04:38:31.083Z,100.00
2022-08-22T04:41:12.039Z,99.87
2022-08-22T04:43:47.532Z,99.92
2022-08-22T04:46:41.581Z,99.97
2022-08-22T04:49:41.514Z,99.97
2022-08-22T04:52:48.395Z,99.95
2022-08-22T04:55:31.601Z,100.00
2022-08-22T04:58:35.675Z,100.00
2022-08-22T05:01:19.969Z,100.00
2022-08-22T05:04:03.463Z,100.00
2022-08-22T05:06:39.833Z,100.00
2022-08-22T05:09:16.451Z,100.00
2022-08-22T05:11:46.405Z,100.00
2022-08-22T05:14:26.437Z,100.00
2022-08-22T05:16:57.518Z,100.00
2022-08-22T05:19:37.426Z,100.00
2022-08-22T05:22:19.213Z,100.00
2022-08-22T05:24:51.850Z,100.00
2022-08-22T05:27:30.044Z,100.00
2022-08-22T05:30:16.553Z,100.00
2022-08-22T05:33:24.741Z,100.00
2022-08-22T05:36:19.347Z,100.00
2022-08-22T05:38:57.454Z,100.00
2022-08-22T05:41:31.850Z,100.00
2022-08-22T05:43:59.924Z,100.00
2022-08-22T05:46:51.235Z,100.00
2022-08-22T05:49:31.318Z,100.00
2022-08-22T05:52:59.269Z,100.00
2022-08-22T05:55:56.583Z,100.00
2022-08-22T05:58:51.670Z,100.00
2022-08-22T06:01:49.544Z,100.00
2022-08-22T06:04:37.099Z,100.00
2022-08-22T06:07:26.547Z,100.00
2022-08-22T06:10:16.488Z,100.00
2022-08-22T06:13:37.202Z,100.00
2022-08-22T06:16:28.555Z,100.00
2022-08-22T06:18:58.303Z,100.00
2022-08-22T06:21:37.772Z,100.00
2022-08-22T06:24:13.450Z,100.00
2022-08-22T06:26:48.591Z,100.00
2022-08-22T06:29:44.005Z,100.00
2022-08-22T06:32:47.070Z,100.00
2022-08-22T06:35:50.519Z,100.00
2022-08-22T06:38:20.300Z,100.00
2022-08-22T06:40:54.366Z,100.00
2022-08-22T06:43:24.976Z,98.80
2022-08-22T06:45:53.380Z,96.28
2022-08-22T06:48:24.216Z,94.72
2022-08-22T06:50:59.235Z,93.91
2022-08-22T06:53:37.140Z,93.93
2022-08-22T06:56:07.889Z,90.94
2022-08-22T06:58:44.147Z,89.13
2022-08-22T07:01:21.323Z,88.03
2022-08-22T07:03:56.634Z,87.62
2022-08-22T07:06:35.955Z,88.44
2022-08-22T07:09:06.894Z,88.99
2022-08-22T07:11:41.422Z,85.76
2022-08-22T07:14:12.563Z,84.52
2022-08-22T07:16:53.803Z,85.81
2022-08-22T07:19:34.509Z,85.00
2022-08-22T07:22:14.983Z,83.74
2022-08-22T07:25:01.074Z,82.36
2022-08-22T07:27:42.796Z,84.63
2022-08-22T07:30:27.227Z,82.52
2022-08-22T07:33:25.786Z,82.35
2022-08-22T07:36:02.081Z,79.56
2022-08-22T07:38:48.190Z,80.15
2022-08-22T07:41:28.693Z,79.79
2022-08-22T07:44:19.018Z,80.32
2022-08-22T07:47:18.111Z,80.14
2022-08-22T07:50:02.160Z,78.87
2022-08-22T07:52:41.671Z,78.47
2022-08-22T07:55:20.692Z,77.14
2022-08-22T07:58:04.162Z,76.34
2022-08-22T08:00:32.874Z,76.65
2022-08-22T08:03:06.468Z,73.81
2022-08-22T08:05:37.222Z,74.87
2022-08-22T08:08:16.139Z,73.66
2022-08-22T08:10:42.994Z,74.19
2022-08-22T08:13:21.601Z,70.95
2022-08-22T08:15:51.100Z,69.31
2022-08-22T08:18:25.777Z,68.19
2022-08-22T08:20:59.087Z,68.18
2022-08-22T08:23:39.558Z,67.27
2022-08-22T08:26:19.669Z,66.79
2022-08-22T08:28:52.723Z,66.81
2022-08-22T08:31:38.182Z,64.23
2022-08-22T08:34:24.995Z,61.23
2022-08-22T08:37:12.721Z,63.14
2022-08-22T08:39:51.339Z,60.86
2022-08-22T08:43:29.807Z,61.24
2022-08-22T08:46:27.175Z,60.15
2022-08-22T08:49:44.819Z,60.23
2022-08-22T08:52:34.502Z,59.76
2022-08-22T08:55:35.804Z,60.52
2022-08-22T08:58:32.103Z,60.77
2022-08-22T09:01:27.790Z,61.05
2022-08-22T09:04:24.307Z,60.47
2022-08-22T09:07:31.469Z,60.57
2022-08-22T09:10:39.243Z,59.52
2022-08-22T09:13:18.281Z,62.14
2022-08-22T09:16:05.766Z,60.57
2022-08-22T09:19:31.410Z,61.60
2022-08-22T09:22:19.629Z,59.94
2022-08-22T09:25:18.988Z,60.03
2022-08-22T09:28:08.175Z,59.12
2022-08-22T09:31:22.199Z,59.16
2022-08-22T09:34:24.073Z,60.30
2022-08-22T09:37:14.212Z,57.50
2022-08-22T09:48:38.656Z,56.47
2022-08-22T09:51:32.286Z,58.16
2022-08-22T09:54:24.791Z,56.70
2022-08-22T09:57:56.146Z,58.20
2022-08-22T10:00:38.399Z,58.14
2022-08-22T10:03:19.791Z,56.94
2022-08-22T10:06:18.267Z,57.22
2022-08-22T10:08:53.932Z,56.97
2022-08-22T10:11:42.325Z,57.94
2022-08-22T10:14:22.281Z,58.29
2022-08-22T10:17:08.429Z,56.63
2022-08-22T10:19:50.398Z,56.37
2022-08-22T10:23:12.839Z,57.05
2022-08-22T10:25:51.611Z,56.63
2022-08-22T10:28:51.033Z,57.21
2022-08-22T10:31:24.851Z,55.32
2022-08-22T10:34:20.237Z,56.54
2022-08-22T10:37:08.060Z,55.58
2022-08-22T10:40:15.461Z,55.21
2022-08-22T10:43:02.759Z,52.92
2022-08-22T10:45:37.391Z,53.48
2022-08-22T10:48:29.022Z,52.09
2022-08-22T10:51:15.257Z,54.22
2022-08-22T10:54:13.046Z,54.18
2022-08-22T10:57:06.685Z,52.89
2022-08-22T11:00:07.235Z,52.36
2022-08-22T11:02:39.499Z,53.36
2022-08-22T11:05:41.290Z,52.41
2022-08-22T11:08:22.988Z,50.64
2022-08-22T11:11:39.396Z,51.55
2022-08-22T11:14:49.184Z,50.58
2022-08-22T11:17:53.822Z,49.33
2022-08-22T11:21:07.325Z,49.99
2022-08-22T11:23:43.148Z,48.91
2022-08-22T11:26:51.287Z,49.64
2022-08-22T11:29:30.212Z,51.78
2022-08-22T11:32:35.267Z,51.12
2022-08-22T11:35:32.947Z,51.74
2022-08-22T11:38:17.962Z,49.39
2022-08-22T11:41:00.513Z,50.10
2022-08-22T11:43:50.234Z,49.48
2022-08-22T11:46:31.799Z,49.67
2022-08-22T11:49:41.443Z,51.27
2022-08-22T11:52:26.273Z,50.71
2022-08-22T11:55:38.411Z,51.42
2022-08-22T11:58:30.999Z,54.02
2022-08-22T12:01:11.821Z,52.10
2022-08-22T12:03:58.362Z,51.22
2022-08-22T12:06:39.405Z,50.37
2022-08-22T12:09:38.049Z,50.10
2022-08-22T12:12:37.831Z,52.02
2022-08-22T12:15:21.494Z,50.16
2022-08-22T12:18:43.292Z,48.92
2022-08-22T12:21:51.297Z,50.93
2022-08-22T12:24:37.737Z,51.61
2022-08-22T12:27:35.461Z,51.07
2022-08-22T12:30:27.306Z,52.98
2022-08-22T12:33:27.112Z,52.82
2022-08-22T12:36:20.580Z,52.87
2022-08-22T12:39:43.287Z,53.28
2022-08-22T12:42:25.359Z,53.25
2022-08-22T12:45:40.365Z,50.79
2022-08-22T12:48:52.283Z,51.73
2022-08-22T12:51:30.901Z,51.69
2022-08-22T12:54:48.194Z,51.34
2022-08-22T12:57:37.651Z,50.60
2022-08-22T13:00:36.904Z,49.15
2022-08-22T13:03:11.493Z,48.86
2022-08-22T13:05:43.793Z,48.65
2022-08-22T13:08:26.715Z,49.74
2022-08-22T13:11:08.111Z,50.16
2022-08-22T13:13:56.073Z,50.43
2022-08-22T13:16:36.421Z,48.80
2022-08-22T13:19:22.354Z,49.40
2022-08-22T13:21:59.781Z,48.23
2022-08-22T13:25:02.401Z,48.36
2022-08-22T13:27:50.646Z,48.74
2022-08-22T13:30:40.001Z,49.21
2022-08-22T13:33:25.676Z,49.31
2022-08-22T13:36:00.372Z,49.65
2022-08-22T13:38:34.713Z,48.87
2022-08-22T13:41:05.324Z,50.23
2022-08-22T13:43:53.236Z,50.66
2022-08-22T13:46:35.480Z,50.69
2022-08-22T13:49:09.991Z,50.61
2022-08-22T13:52:29.767Z,50.06
2022-08-22T13:55:34.053Z,51.45
2022-08-22T13:58:11.336Z,51.66
2022-08-22T14:01:25.744Z,51.54
2022-08-22T14:04:35.973Z,51.78
2022-08-22T14:07:06.073Z,51.80
2022-08-22T14:09:41.708Z,51.80
2022-08-22T14:12:27.127Z,53.43
2022-08-22T14:15:02.195Z,53.58
2022-08-22T14:17:42.976Z,52.81
2022-08-22T14:20:32.545Z,51.47
2022-08-22T14:23:29.277Z,51.78
2022-08-22T14:25:57.491Z,52.38
2022-08-22T14:28:32.324Z,51.76
2022-08-22T14:31:14.292Z,51.85
2022-08-22T14:34:04.121Z,53.09
2022-08-22T14:37:00.405Z,52.81
2022-08-22T14:39:43.597Z,52.60
2022-08-22T14:42:48.131Z,53.11
2022-08-22T14:45:24.634Z,53.52
2022-08-22T14:48:29.584Z,52.51
2022-08-22T14:51:04.134Z,52.21
2022-08-22T14:53:37.117Z,52.85
2022-08-22T14:56:27.758Z,53.27
2022-08-22T14:59:06.766Z,53.44
2022-08-22T15:02:10.875Z,53.10
2022-08-22T15:04:44.612Z,52.66
2022-08-22T15:07:24.844Z,53.19
2022-08-22T15:10:03.173Z,52.82
2022-08-22T15:12:45.175Z,52.46
2022-08-22T15:15:49.698Z,52.56
2022-08-22T15:18:28.000Z,54.08
2022-08-22T15:21:08.926Z,53.70
2022-08-22T15:23:44.999Z,54.77
2022-08-22T15:26:26.191Z,53.27
2022-08-22T15:29:22.538Z,54.10
2022-08-22T15:31:54.721Z,52.75
2022-08-22T15:34:38.322Z,54.60
2022-08-22T15:37:17.540Z,52.49
2022-08-22T15:40:35.475Z,52.59
2022-08-22T15:43:25.768Z,52.92
2022-08-22T15:46:23.289Z,53.73
2022-08-22T15:49:29.654Z,55.71
2022-08-22T15:52:03.249Z,53.06
2022-08-22T15:54:54.683Z,53.94
2022-08-22T15:57:40.502Z,54.47
2022-08-22T16:01:02.707Z,54.19
2022-08-22T16:03:34.116Z,54.19
2022-08-22T16:06:10.001Z,54.33
2022-08-22T16:08:36.620Z,54.28
2022-08-22T16:11:03.299Z,54.33
2022-08-22T16:13:30.016Z,54.51
2022-08-22T16:16:05.435Z,54.34
2022-08-22T16:18:39.306Z,54.88
2022-08-22T16:21:08.465Z,55.45
2022-08-22T16:23:51.100Z,55.85
2022-08-22T16:26:43.565Z,56.76
2022-08-22T16:29:13.474Z,55.70
2022-08-22T16:31:44.218Z,56.56
2022-08-22T16:34:17.112Z,57.10
2022-08-22T16:37:08.249Z,56.09
2022-08-22T16:39:48.531Z,56.24
2022-08-22T16:42:20.136Z,57.38
2022-08-22T16:44:58.613Z,58.18
2022-08-22T16:47:32.732Z,56.24
2022-08-22T16:50:18.424Z,56.85
2022-08-22T16:52:52.202Z,56.56
2022-08-22T16:55:31.263Z,57.32
2022-08-22T16:59:09.941Z,56.92
2022-08-22T17:02:13.167Z,57.76
2022-08-22T17:05:03.293Z,57.19
2022-08-22T17:08:06.535Z,57.29
2022-08-22T17:11:10.180Z,56.99
2022-08-22T17:13:59.824Z,57.34
2022-08-22T17:16:54.028Z,57.65
2022-08-22T17:19:58.385Z,57.87
2022-08-22T17:22:37.513Z,58.12
2022-08-22T17:25:34.751Z,58.67
2022-08-22T17:28:22.970Z,59.22
2022-08-22T17:31:24.111Z,59.71
2022-08-22T17:34:29.944Z,60.33
2022-08-22T17:37:26.042Z,60.80
2022-08-22T17:40:04.184Z,61.59
2022-08-22T17:42:53.560Z,61.71
2022-08-22T17:45:49.705Z,61.91
2022-08-22T17:48:26.124Z,61.89
2022-08-22T17:51:02.686Z,62.02
2022-08-22T17:53:47.003Z,62.09
2022-08-22T17:56:26.298Z,61.61
2022-08-22T17:59:46.671Z,61.14
2022-08-22T18:02:33.693Z,61.99
2022-08-22T18:05:19.466Z,62.48
2022-08-22T18:11:24.257Z,60.96
2022-08-22T18:14:12.395Z,60.93
2022-08-22T18:16:47.529Z,61.62
2022-08-22T18:19:23.314Z,62.31
2022-08-22T18:22:15.585Z,60.76
2022-08-22T18:24:58.092Z,60.59
2022-08-22T18:27:47.586Z,61.01
2022-08-22T18:30:31.305Z,61.77
2022-08-22T18:33:45.701Z,61.87
2022-08-22T18:36:30.307Z,62.79
2022-08-22T18:39:17.126Z,62.80
2022-08-22T18:41:54.560Z,62.84
2022-08-22T18:44:32.717Z,63.01
2022-08-22T18:47:25.275Z,63.50
2022-08-22T18:49:55.685Z,63.54
2022-08-22T18:52:37.275Z,63.88
2022-08-22T18:55:31.005Z,64.52
2022-08-22T18:58:41.664Z,64.86
2022-08-22T19:02:00.569Z,65.65
2022-08-22T19:04:53.817Z,66.34
2022-08-22T19:08:01.859Z,67.04
2022-08-22T19:11:15.422Z,67.79
2022-08-22T19:14:00.578Z,68.73
2022-08-22T19:17:15.592Z,68.73
2022-08-22T19:20:39.236Z,68.95
2022-08-22T19:23:33.799Z,69.29
2022-08-22T19:26:31.107Z,69.90
2022-08-22T19:29:08.852Z,69.28
2022-08-22T19:31:41.901Z,69.72
2022-08-22T19:34:33.900Z,69.98
2022-08-22T19:37:33.202Z,70.16
2022-08-22T19:40:09.502Z,70.72
2022-08-22T19:42:41.579Z,70.31
2022-08-22T19:45:29.052Z,70.03
2022-08-22T19:48:08.500Z,70.22
2022-08-22T19:50:38.222Z,70.06
2022-08-22T19:53:39.419Z,70.44
2022-08-22T19:56:48.279Z,70.66
2022-08-22T20:00:00.285Z,71.18
2022-08-22T20:02:50.513Z,71.03
2022-08-22T20:05:35.070Z,69.88
2022-08-22T20:08:27.563Z,70.26
2022-08-22T20:11:22.955Z,70.97
2022-08-22T20:13:50.420Z,71.05
2022-08-22T20:16:42.794Z,70.05
2022-08-22T20:19:09.923Z,70.44
2022-08-22T20:21:49.149Z,70.65
2022-08-22T20:24:28.609Z,71.08
2022-08-22T20:27:15.625Z,70.96
2022-08-22T20:29:51.340Z,70.79
2022-08-22T20:32:23.194Z,70.10
2022-08-22T20:34:57.646Z,70.65
2022-08-22T20:38:03.370Z,70.64
2022-08-22T20:40:55.919Z,69.11
2022-08-22T20:43:35.286Z,69.24
2022-08-22T20:46:23.978Z,69.42
2022-08-22T20:48:55.850Z,69.23
2022-08-22T20:51:28.007Z,69.60
2022-08-22T20:54:19.440Z,69.31
2022-08-22T20:56:53.896Z,69.36
2022-08-22T20:59:25.681Z,69.72
2022-08-22T21:02:27.432Z,69.80
2022-08-22T21:05:08.925Z,70.13
2022-08-22T21:07:47.536Z,70.57
2022-08-22T21:10:46.052Z,70.71
2022-08-22T21:13:32.416Z,71.45
2022-08-22T21:16:15.677Z,71.50
2022-08-22T21:18:53.440Z,71.94
2022-08-22T21:21:29.011Z,72.19
2022-08-22T21:24:01.268Z,72.81
2022-08-22T21:26:41.838Z,72.91
2022-08-22T21:29:14.395Z,73.31
2022-08-22T21:32:04.411Z,73.69
2022-08-22T21:34:41.118Z,73.94
2022-08-22T21:37:17.217Z,74.13
2022-08-22T21:39:50.049Z,74.88
2022-08-22T21:42:32.280Z,74.87
2022-08-22T21:45:10.934Z,75.43
2022-08-22T21:47:42.527Z,75.55
2022-08-22T21:50:20.527Z,75.82
2022-08-22T21:52:56.251Z,76.09
2022-08-22T21:55:29.673Z,75.99
2022-08-22T21:58:34.172Z,75.55
2022-08-22T22:01:31.723Z,75.90
2022-08-22T22:03:59.859Z,76.54
2022-08-22T22:06:27.832Z,76.65
2022-08-22T22:08:55.310Z,76.42
2022-08-22T22:11:22.464Z,76.38
2022-08-22T22:13:49.218Z,76.19
2022-08-22T22:16:27.967Z,76.40
2022-08-22T22:18:56.892Z,76.63
2022-08-22T22:21:23.839Z,76.51
2022-08-22T22:23:50.720Z,76.55
2022-08-22T22:26:17.555Z,76.52
2022-08-22T22:28:48.249Z,76.79
2022-08-22T22:31:18.295Z,76.92
2022-08-22T22:33:45.170Z,76.94
2022-08-22T22:36:26.723Z,76.98
2022-08-22T22:38:55.156Z,77.06
2022-08-22T22:41:25.851Z,77.39
2022-08-22T22:43:54.831Z,77.36
2022-08-22T22:46:23.272Z,77.66
2022-08-22T22:48:50.372Z,78.50
2022-08-22T22:51:17.235Z,79.30
2022-08-22T22:53:45.037Z,80.27
2022-08-22T22:56:21.673Z,80.66
2022-08-22T22:58:50.113Z,80.80
2022-08-22T23:01:26.964Z,82.08
2022-08-22T23:03:58.054Z,82.09
2022-08-22T23:06:29.752Z,82.84
2022-08-22T23:08:57.821Z,84.09
2022-08-22T23:11:30.025Z,84.93
2022-08-22T23:13:57.430Z,84.40
2022-08-22T23:16:28.607Z,85.20
2022-08-22T23:18:56.328Z,85.61
2022-08-22T23:21:28.354Z,85.84
2022-08-22T23:23:58.402Z,87.16
2022-08-22T23:26:25.938Z,86.12
2022-08-22T23:28:52.861Z,85.91
2022-08-22T23:31:34.907Z,86.66
2022-08-22T23:34:13.645Z,88.06
2022-08-22T23:36:45.239Z,87.39
2022-08-22T23:39:15.263Z,85.74
2022-08-22T23:41:44.055Z,86.01
2022-08-22T23:44:15.623Z,88.06
2022-08-22T23:46:45.390Z,87.77
2022-08-22T23:49:13.493Z,86.65
2022-08-22T23:51:42.063Z,85.35
2022-08-22T23:54:09.347Z,85.21
2022-08-22T23:56:42.023Z,84.95
2022-08-22T23:59:14.686Z,84.88
